Time;durP1;ratioP1;P1;durP2;ratioP2;P2;SDS_P1;SDS_P2;PMS_P1;PMS_P2;Temp;Humidity;BMP_temperature;BMP_pressure;BME280_temperature;BME280_humidity;BME280_pressure;Samples;Min_cycle;Max_cycle;Signal;HPM_P1;HPM_P2
2022/04/10 00:01:26;;;;;;;4.43;1.45;;;;;;;;;;10369297;28;20631;-48
2022/04/10 00:06:27;;;;;;;3.53;1.50;;;;;;;;;;10330483;28;20277;-49
2022/04/10 00:11:29;;;;;;;3.70;1.20;;;;;;;;;;10356227;28;20152;-49
2022/04/10 00:16:29;;;;;;;4.72;1.25;;;;;;;;;;10363505;28;20019;-48
2022/04/10 00:21:32;;;;;;;3.05;1.40;;;;;;;;;;10368542;28;20386;-49
2022/04/10 00:26:33;;;;;;;1.20;1.10;;;;;;;;;;10367699;28;20040;-49
2022/04/10 00:31:34;;;;;;;4.35;1.42;;;;;;;;;;10351164;28;20053;-49
2022/04/10 00:36:34;;;;;;;2.63;1.27;;;;;;;;;;10333343;28;20204;-48
2022/04/10 00:41:35;;;;;;;1.20;1.10;;;;;;;;;;10326692;28;20041;-55
2022/04/10 00:46:37;;;;;;;1.02;0.95;;;;;;;;;;10359896;28;20037;-52
2022/04/10 00:51:41;;;;;;;3.65;1.10;;;;;;;;;;10368022;28;20038;-51
2022/04/10 00:56:43;;;;;;;1.55;1.20;;;;;;;;;;10358268;28;20042;-49
2022/04/10 01:01:47;;;;;;;1.13;1.00;;;;;;;;;;10346577;28;20034;-49
2022/04/10 01:06:50;;;;;;;3.38;1.40;;;;;;;;;;10377740;28;20076;-49
2022/04/10 01:11:54;;;;;;;1.90;1.05;;;;;;;;;;10367433;28;20037;-48
2022/04/10 01:16:55;;;;;;;5.63;1.08;;;;;;;;;;10366399;28;20049;-48
2022/04/10 01:22:03;;;;;;;6.05;1.10;;;;;;;;;;10366398;28;20034;-47
2022/04/10 01:27:04;;;;;;;1.50;1.20;;;;;;;;;;10365472;28;20034;-48
2022/04/10 01:32:06;;;;;;;1.48;0.98;;;;;;;;;;10366887;28;20603;-49
2022/04/10 01:37:08;;;;;;;1.75;1.20;;;;;;;;;;10366316;28;20366;-48
2022/04/10 01:42:08;;;;;;;2.55;1.10;;;;;;;;;;10366563;28;20049;-49
2022/04/10 01:47:09;;;;;;;2.75;1.13;;;;;;;;;;10366248;28;20053;-48
2022/04/10 01:52:09;;;;;;;2.67;1.00;;;;;;;;;;10366439;28;20036;-48
2022/04/10 01:57:10;;;;;;;1.42;1.08;;;;;;;;;;10361885;28;20045;-48
2022/04/10 02:02:11;;;;;;;1.45;1.02;;;;;;;;;;10366160;28;20025;-50
2022/04/10 02:07:11;;;;;;;1.65;1.20;;;;;;;;;;10365252;28;20030;-48
2022/04/10 02:12:12;;;;;;;1.67;0.90;;;;;;;;;;10366046;28;20096;-50
2022/04/10 02:17:12;;;;;;;1.98;1.10;;;;;;;;;;10365826;28;20034;-50
2022/04/10 02:22:13;;;;;;;1.58;1.20;;;;;;;;;;10365591;28;20211;-48
2022/04/10 02:27:14;;;;;;;1.08;0.98;;;;;;;;;;10365458;28;20042;-48
2022/04/10 02:32:14;;;;;;;3.60;1.08;;;;;;;;;;10370939;28;20034;-48
2022/04/10 02:37:15;;;;;;;3.03;0.90;;;;;;;;;;10372182;28;20030;-50
2022/04/10 02:42:15;;;;;;;1.98;0.88;;;;;;;;;;10372874;28;20038;-59
2022/04/10 02:47:16;;;;;;;2.97;1.00;;;;;;;;;;10352351;28;20030;-59
2022/04/10 02:52:17;;;;;;;4.88;1.00;;;;;;;;;;10369846;28;20049;-56
2022/04/10 02:57:18;;;;;;;1.30;0.98;;;;;;;;;;10371035;28;20354;-52
2022/04/10 03:02:18;;;;;;;0.90;0.90;;;;;;;;;;10371149;28;20344;-53
2022/04/10 03:07:19;;;;;;;2.40;1.20;;;;;;;;;;10371088;28;20398;-48
2022/04/10 03:12:19;;;;;;;0.90;0.90;;;;;;;;;;10372088;28;20030;-57
2022/04/10 03:17:20;;;;;;;1.77;1.00;;;;;;;;;;10370635;28;20030;-54
2022/04/10 03:22:21;;;;;;;0.82;0.82;;;;;;;;;;10371237;28;20026;-56
2022/04/10 03:27:22;;;;;;;0.93;0.90;;;;;;;;;;10370383;28;20038;-52
2022/04/10 03:32:22;;;;;;;1.95;0.90;;;;;;;;;;10370190;28;20037;-48
2022/04/10 03:37:23;;;;;;;1.10;1.00;;;;;;;;;;10369529;28;20405;-58
2022/04/10 03:42:23;;;;;;;1.98;1.05;;;;;;;;;;10370176;28;20389;-59
2022/04/10 03:47:24;;;;;;;1.13;0.98;;;;;;;;;;10370191;28;20057;-55
2022/04/10 03:52:24;;;;;;;1.73;1.15;;;;;;;;;;10369622;28;20030;-58
2022/04/10 03:57:25;;;;;;;0.80;0.80;;;;;;;;;;10369180;28;20042;-47
2022/04/10 04:02:26;;;;;;;1.35;1.00;;;;;;;;;;10370005;28;20056;-61
2022/04/10 04:07:26;;;;;;;1.63;0.95;;;;;;;;;;10369133;28;20030;-58
2022/04/10 04:12:27;;;;;;;1.85;1.00;;;;;;;;;;10369706;28;20470;-52
2022/04/10 04:17:27;;;;;;;1.13;0.80;;;;;;;;;;10368280;28;20481;-47
2022/04/10 04:22:28;;;;;;;1.10;0.98;;;;;;;;;;10368797;28;20034;-50
2022/04/10 04:27:29;;;;;;;1.85;1.25;;;;;;;;;;10367945;28;20045;-52
2022/04/10 04:32:29;;;;;;;0.90;0.90;;;;;;;;;;10368350;28;20033;-49
2022/04/10 04:37:30;;;;;;;1.40;1.10;;;;;;;;;;10368075;28;20064;-47
2022/04/10 04:42:30;;;;;;;1.05;0.93;;;;;;;;;;10368967;28;20026;-47
2022/04/10 04:47:31;;;;;;;1.30;1.00;;;;;;;;;;10367583;28;20032;-49
2022/04/10 04:52:32;;;;;;;1.10;0.90;;;;;;;;;;10366892;28;20030;-48
2022/04/10 04:57:32;;;;;;;1.13;1.00;;;;;;;;;;10368135;28;20034;-48
2022/04/10 05:02:33;;;;;;;0.90;0.90;;;;;;;;;;10367684;28;20034;-47
2022/04/10 05:07:33;;;;;;;1.42;0.93;;;;;;;;;;10367496;28;20040;-48
2022/04/10 05:12:34;;;;;;;2.28;1.00;;;;;;;;;;10367898;28;20036;-48
2022/04/10 05:17:36;;;;;;;1.13;0.95;;;;;;;;;;10367683;28;20026;-47
2022/04/10 05:22:37;;;;;;;0.90;0.90;;;;;;;;;;10346237;28;20033;-48
2022/04/10 05:27:38;;;;;;;1.08;0.90;;;;;;;;;;10338752;28;20030;-48
2022/04/10 05:32:42;;;;;;;1.00;1.00;;;;;;;;;;10345742;28;20026;-47
2022/04/10 05:37:42;;;;;;;2.22;1.10;;;;;;;;;;10332527;28;20383;-49
2022/04/10 05:42:45;;;;;;;1.40;1.30;;;;;;;;;;10341446;28;20041;-47
2022/04/10 05:47:45;;;;;;;1.38;1.10;;;;;;;;;;10365510;28;20045;-50
2022/04/10 05:52:48;;;;;;;1.73;1.23;;;;;;;;;;10360006;28;20041;-48
2022/04/10 05:57:49;;;;;;;2.33;1.30;;;;;;;;;;10362233;28;20042;-47
2022/04/10 06:02:50;;;;;;;11.00;3.58;;;;;;;;;;10362339;28;20030;-56
2022/04/10 06:07:50;;;;;;;8.75;3.88;;;;;;;;;;10359008;28;20149;-50
2022/04/10 06:12:51;;;;;;;5.43;3.50;;;;;;;;;;10373469;28;20149;-56
2022/04/10 06:17:52;;;;;;;4.95;3.10;;;;;;;;;;10372777;28;20156;-47
2022/04/10 06:22:52;;;;;;;4.60;3.50;;;;;;;;;;10367890;28;20103;-49
2022/04/10 06:31:56;;;;;;;5.55;3.63;;;;;;;;;;10491454;28;20683;-50
2022/04/10 06:36:57;;;;;;;3.53;3.00;;;;;;;;;;10478820;28;20040;-50
2022/04/10 06:41:57;;;;;;;5.03;3.00;;;;;;;;;;10458815;28;20495;-46
2022/04/10 06:46:57;;;;;;;15.17;3.73;;;;;;;;;;10482504;28;20544;-47
2022/04/10 06:51:58;;;;;;;16.70;3.10;;;;;;;;;;10466480;28;20462;-48
2022/04/10 06:56:58;;;;;;;5.28;2.78;;;;;;;;;;10474354;28;20037;-46
2022/04/10 07:01:59;;;;;;;7.60;2.57;;;;;;;;;;10445646;28;20428;-46
2022/04/10 07:06:59;;;;;;;5.60;2.53;;;;;;;;;;10467521;28;20376;-46
2022/04/10 07:11:59;;;;;;;5.20;2.57;;;;;;;;;;10464089;28;20032;-46
2022/04/10 07:17:00;;;;;;;8.83;3.03;;;;;;;;;;10443866;28;20473;-47
2022/04/10 07:27:19;;;;;;;2.92;2.05;;;;;;;;;;10458793;28;20120;-46
2022/04/10 07:32:19;;;;;;;4.60;2.00;;;;;;;;;;10474797;28;20071;-46
2022/04/10 07:37:20;;;;;;;3.97;1.93;;;;;;;;;;10475005;28;20543;-46
2022/04/10 07:42:20;;;;;;;9.57;2.30;;;;;;;;;;10437673;28;20116;-47
2022/04/10 07:47:27;;;;;;;18.93;3.17;;;;;;;;;;10416134;28;20475;-47
2022/04/10 07:52:28;;;;;;;9.05;2.63;;;;;;;;;;10442607;28;20032;-51
2022/04/10 07:57:28;;;;;;;17.35;3.63;;;;;;;;;;10432155;28;20028;-47
2022/04/10 08:02:28;;;;;;;13.37;2.60;;;;;;;;;;10464542;28;20047;-49
2022/04/10 08:07:29;;;;;;;19.50;2.63;;;;;;;;;;10415857;28;20082;-46
2022/04/10 08:12:29;;;;;;;16.80;3.20;;;;;;;;;;10451368;28;20024;-46
2022/04/10 08:17:29;;;;;;;18.43;2.70;;;;;;;;;;10436857;28;20529;-46
2022/04/10 08:22:34;;;;;;;14.57;3.15;;;;;;;;;;10412850;28;20040;-46
2022/04/10 08:27:36;;;;;;;13.18;2.47;;;;;;;;;;10436842;28;20045;-46
2022/04/10 08:32:38;;;;;;;8.18;2.30;;;;;;;;;;10413609;28;20096;-47
2022/04/10 08:37:39;;;;;;;11.65;2.53;;;;;;;;;;10428418;28;20129;-46
2022/04/10 08:42:39;;;;;;;11.10;2.65;;;;;;;;;;10437130;28;20033;-46
2022/04/10 08:47:40;;;;;;;6.83;2.40;;;;;;;;;;10429392;28;20041;-47
2022/04/10 08:52:41;;;;;;;13.23;2.70;;;;;;;;;;10437982;28;20458;-46
2022/04/10 08:57:41;;;;;;;9.18;2.13;;;;;;;;;;10437816;28;20090;-47
2022/04/10 09:02:52;;;;;;;4.73;2.40;;;;;;;;;;10450581;28;20059;-46
2022/04/10 09:08:13;;;;;;;6.70;1.65;;;;;;;;;;10425253;28;20108;-46
2022/04/10 09:13:13;;;;;;;8.82;2.30;;;;;;;;;;10416549;28;20037;-46
2022/04/10 09:18:13;;;;;;;4.43;2.20;;;;;;;;;;10421648;28;20033;-46
2022/04/10 09:23:14;;;;;;;10.93;2.07;;;;;;;;;;10410963;28;20502;-46
2022/04/10 09:28:14;;;;;;;5.23;1.70;;;;;;;;;;10422459;28;20206;-47
2022/04/10 09:33:14;;;;;;;6.50;2.33;;;;;;;;;;10431396;28;20040;-46
2022/04/10 09:38:29;;;;;;;4.67;2.10;;;;;;;;;;10428225;28;20033;-46
2022/04/10 09:43:29;;;;;;;5.65;1.88;;;;;;;;;;10423977;28;20055;-46
2022/04/10 09:48:30;;;;;;;10.00;2.10;;;;;;;;;;10431918;28;20086;-48
2022/04/10 09:53:32;;;;;;;4.00;1.65;;;;;;;;;;10420239;28;20483;-46
2022/04/10 09:58:33;;;;;;;3.72;1.80;;;;;;;;;;10416081;28;20091;-46
2022/04/10 10:03:36;;;;;;;8.00;2.10;;;;;;;;;;10424299;28;20029;-48
2022/04/10 10:08:37;;;;;;;4.72;1.92;;;;;;;;;;10414674;28;20041;-46
2022/04/10 10:13:38;;;;;;;6.25;1.98;;;;;;;;;;10420556;28;20038;-46
2022/04/10 10:18:39;;;;;;;4.90;2.22;;;;;;;;;;10435816;28;20029;-46
2022/04/10 10:23:45;;;;;;;7.25;2.72;;;;;;;;;;10412073;28;20037;-49
2022/04/10 10:29:17;;;;;;;4.20;2.58;;;;;;;;;;10406838;28;20131;-47
2022/04/10 10:34:21;;;;;;;3.35;2.13;;;;;;;;;;10410101;28;20116;-46
2022/04/10 10:39:22;;;;;;;6.25;3.03;;;;;;;;;;10412964;28;20075;-47
2022/04/10 10:44:25;;;;;;;3.78;2.40;;;;;;;;;;10436081;28;20070;-46
2022/04/10 10:49:28;;;;;;;3.60;2.50;;;;;;;;;;10442326;28;20099;-47
2022/04/10 10:54:34;;;;;;;4.68;2.83;;;;;;;;;;10424019;28;20036;-46
2022/04/10 10:59:39;;;;;;;5.53;3.50;;;;;;;;;;10435342;28;20029;-47
2022/04/10 11:04:45;;;;;;;8.65;3.63;;;;;;;;;;10423750;28;20052;-46
2022/04/10 11:10:00;;;;;;;6.78;3.85;;;;;;;;;;10430031;28;20545;-47
2022/04/10 11:15:22;;;;;;;6.45;4.10;;;;;;;;;;10416913;28;20021;-48
2022/04/10 11:20:27;;;;;;;6.75;3.63;;;;;;;;;;10442531;28;20021;-46
2022/04/10 11:25:27;;;;;;;5.43;3.40;;;;;;;;;;10437055;28;20388;-46
2022/04/10 11:30:33;;;;;;;7.53;3.83;;;;;;;;;;10427919;28;20045;-46
2022/04/10 11:35:35;;;;;;;6.43;4.05;;;;;;;;;;10437939;28;20102;-47
2022/04/10 11:40:47;;;;;;;6.32;3.70;;;;;;;;;;10447282;28;20040;-47
2022/04/10 11:45:50;;;;;;;5.82;3.47;;;;;;;;;;10417814;28;20404;-47
2022/04/10 11:50:50;;;;;;;6.72;3.55;;;;;;;;;;10427306;28;20385;-46
2022/04/10 11:55:51;;;;;;;5.72;3.25;;;;;;;;;;10445459;28;20041;-47
2022/04/10 12:00:59;;;;;;;5.13;3.15;;;;;;;;;;10422574;28;20033;-46
2022/04/10 12:05:59;;;;;;;5.50;2.43;;;;;;;;;;10427036;28;20523;-47
2022/04/10 12:11:01;;;;;;;4.83;2.90;;;;;;;;;;10419979;28;20029;-46
2022/04/10 12:16:13;;;;;;;5.47;3.17;;;;;;;;;;10415907;28;20719;-47
2022/04/10 12:21:14;;;;;;;4.55;3.00;;;;;;;;;;10433180;28;20025;-46
2022/04/10 12:26:15;;;;;;;7.13;2.88;;;;;;;;;;10424342;28;20021;-46
2022/04/10 12:31:18;;;;;;;4.65;2.45;;;;;;;;;;10427812;28;20060;-46
2022/04/10 12:36:25;;;;;;;5.05;2.28;;;;;;;;;;10417452;28;20025;-46
2022/04/10 12:41:27;;;;;;;3.30;2.35;;;;;;;;;;10428117;28;20032;-46
2022/04/10 12:46:37;;;;;;;2.90;2.15;;;;;;;;;;10442654;28;20067;-47
2022/04/10 12:51:55;;;;;;;7.32;2.35;;;;;;;;;;10446744;28;20044;-46
2022/04/10 12:56:55;;;;;;;3.63;2.40;;;;;;;;;;10448926;28;20056;-48
2022/04/10 13:01:57;;;;;;;2.40;2.10;;;;;;;;;;10446931;28;20051;-47
2022/04/10 13:06:57;;;;;;;3.65;2.03;;;;;;;;;;10438566;28;20499;-47
2022/04/10 13:11:58;;;;;;;4.53;2.20;;;;;;;;;;10430935;28;20557;-46
2022/04/10 13:17:04;;;;;;;9.30;2.13;;;;;;;;;;10429148;28;20033;-46
2022/04/10 13:22:05;;;;;;;4.85;2.00;;;;;;;;;;10427662;28;20777;-46
2022/04/10 13:27:05;;;;;;;12.80;2.30;;;;;;;;;;10408795;28;20556;-47
2022/04/10 13:32:06;;;;;;;4.22;2.25;;;;;;;;;;10413677;28;20022;-47
2022/04/10 13:37:06;;;;;;;5.53;1.85;;;;;;;;;;10408176;28;20465;-47
2022/04/10 13:42:07;;;;;;;7.13;1.83;;;;;;;;;;10438546;28;20029;-46
2022/04/10 13:47:07;;;;;;;2.95;1.90;;;;;;;;;;10409800;28;20091;-48
2022/04/10 13:52:08;;;;;;;5.43;2.00;;;;;;;;;;10412702;28;20036;-48
2022/04/10 13:57:08;;;;;;;7.10;2.15;;;;;;;;;;10411455;28;20471;-47
2022/04/10 14:02:09;;;;;;;2.88;1.70;;;;;;;;;;10409187;28;20497;-47
2022/04/10 14:07:10;;;;;;;3.70;1.60;;;;;;;;;;10412554;28;20034;-48
2022/04/10 14:12:11;;;;;;;3.20;1.80;;;;;;;;;;10415773;28;20067;-46
2022/04/10 14:17:12;;;;;;;3.80;1.42;;;;;;;;;;10425278;28;20032;-46
2022/04/10 14:22:12;;;;;;;3.20;1.80;;;;;;;;;;10425733;28;20071;-47
2022/04/10 14:27:12;;;;;;;2.23;1.70;;;;;;;;;;10419884;28;20021;-46
2022/04/10 14:32:13;;;;;;;3.33;1.80;;;;;;;;;;10425741;28;20037;-48
2022/04/10 14:37:13;;;;;;;3.17;1.60;;;;;;;;;;10419212;28;20452;-47
2022/04/10 14:42:14;;;;;;;3.95;1.60;;;;;;;;;;10419934;28;20436;-46
2022/04/10 14:47:14;;;;;;;1.90;1.30;;;;;;;;;;10415250;28;20029;-47
2022/04/10 14:52:15;;;;;;;2.43;1.40;;;;;;;;;;10426256;28;20025;-47
2022/04/10 14:57:15;;;;;;;2.17;1.60;;;;;;;;;;10450476;28;20029;-46
2022/04/10 15:02:16;;;;;;;2.00;1.67;;;;;;;;;;10432082;28;20017;-46
2022/04/10 15:07:16;;;;;;;2.03;1.25;;;;;;;;;;10426454;28;20121;-46
2022/04/10 15:12:17;;;;;;;3.67;1.30;;;;;;;;;;10423238;28;20029;-46
2022/04/10 15:17:17;;;;;;;2.35;1.40;;;;;;;;;;10421409;28;20075;-46
2022/04/10 15:22:18;;;;;;;2.78;1.33;;;;;;;;;;10426979;28;21535;-46
2022/04/10 15:27:19;;;;;;;4.35;1.63;;;;;;;;;;10423518;28;20033;-46
2022/04/10 15:32:19;;;;;;;1.95;1.30;;;;;;;;;;10442165;28;20018;-46
2022/04/10 15:37:19;;;;;;;4.63;1.47;;;;;;;;;;10435122;28;20396;-48
2022/04/10 15:42:20;;;;;;;4.77;1.50;;;;;;;;;;10447914;28;20413;-46
2022/04/10 15:47:20;;;;;;;6.43;1.70;;;;;;;;;;10437834;28;20037;-46
2022/04/10 15:52:21;;;;;;;1.93;1.50;;;;;;;;;;10413197;28;20541;-49
2022/04/10 15:57:22;;;;;;;2.53;1.33;;;;;;;;;;10434317;28;20470;-47
2022/04/10 16:02:23;;;;;;;3.22;1.60;;;;;;;;;;10423148;28;20033;-46
2022/04/10 16:07:23;;;;;;;5.88;1.90;;;;;;;;;;10412987;28;20032;-53
2022/04/10 16:12:24;;;;;;;2.83;1.30;;;;;;;;;;10423186;28;20029;-47
2022/04/10 16:17:25;;;;;;;4.73;1.47;;;;;;;;;;10413539;28;20051;-45
2022/04/10 16:22:25;;;;;;;6.40;1.33;;;;;;;;;;10425015;28;20423;-50
2022/04/10 16:32:50;;;;;;;2.72;1.40;;;;;;;;;;10414654;28;20033;-46
2022/04/10 16:37:53;;;;;;;3.38;1.40;;;;;;;;;;10450105;28;20032;-46
2022/04/10 16:42:53;;;;;;;2.90;1.25;;;;;;;;;;10419023;28;20108;-46
2022/04/10 16:47:54;;;;;;;2.72;1.38;;;;;;;;;;10426314;28;20210;-49
2022/04/10 16:52:55;;;;;;;3.42;1.52;;;;;;;;;;10449085;28;20428;-48
2022/04/10 16:57:55;;;;;;;3.92;1.30;;;;;;;;;;10429763;28;20051;-48
2022/04/10 17:02:56;;;;;;;3.10;1.27;;;;;;;;;;10450333;28;20032;-49
2022/04/10 17:07:56;;;;;;;2.47;1.42;;;;;;;;;;10451292;28;20477;-48
2022/04/10 17:12:57;;;;;;;1.40;1.13;;;;;;;;;;10453017;28;20017;-48
2022/04/10 17:17:57;;;;;;;2.38;1.23;;;;;;;;;;10456297;28;20127;-47
2022/04/10 17:22:58;;;;;;;3.57;1.07;;;;;;;;;;10454305;28;20051;-48
2022/04/10 17:27:58;;;;;;;1.70;1.20;;;;;;;;;;10445081;28;20114;-48
2022/04/10 17:32:58;;;;;;;3.17;1.10;;;;;;;;;;10442248;28;20524;-48
2022/04/10 17:37:59;;;;;;;2.83;1.30;;;;;;;;;;10433234;28;20072;-52
2022/04/10 17:42:59;;;;;;;2.23;1.10;;;;;;;;;;10443044;28;20037;-47
2022/04/10 17:48:00;;;;;;;15.17;1.50;;;;;;;;;;10437585;28;20041;-47
2022/04/10 17:53:00;;;;;;;6.57;1.60;;;;;;;;;;10424819;28;20049;-49
2022/04/10 17:58:00;;;;;;;12.13;2.00;;;;;;;;;;10418899;28;20160;-50
2022/04/10 18:03:01;;;;;;;4.77;1.10;;;;;;;;;;10412251;28;20692;-48
2022/04/10 18:08:01;;;;;;;7.00;2.10;;;;;;;;;;10430553;28;20473;-47
2022/04/10 18:13:01;;;;;;;31.60;2.80;;;;;;;;;;10408619;28;20431;-46
2022/04/10 18:18:04;;;;;;;11.43;2.90;;;;;;;;;;10409826;28;20036;-47
2022/04/10 18:23:09;;;;;;;10.02;2.45;;;;;;;;;;10415695;28;20465;-48
2022/04/10 18:28:09;;;;;;;15.07;2.63;;;;;;;;;;10431227;28;20404;-47
2022/04/10 18:33:10;;;;;;;15.73;2.85;;;;;;;;;;10481301;28;20036;-49
2022/04/10 18:38:11;;;;;;;22.63;3.65;;;;;;;;;;10432031;28;20484;-48
2022/04/10 18:43:12;;;;;;;11.77;3.47;;;;;;;;;;10410895;28;20097;-48
2022/04/10 18:48:15;;;;;;;20.00;4.32;;;;;;;;;;10409610;28;20072;-47
2022/04/10 18:53:16;;;;;;;15.25;4.43;;;;;;;;;;10461170;28;20025;-47
2022/04/10 18:58:17;;;;;;;23.98;4.45;;;;;;;;;;10427195;28;20033;-49
2022/04/10 19:03:18;;;;;;;17.35;4.18;;;;;;;;;;10430939;28;20041;-47
2022/04/10 19:08:18;;;;;;;23.13;4.53;;;;;;;;;;10420551;28;20063;-48
2022/04/10 19:13:18;;;;;;;19.53;4.07;;;;;;;;;;10439708;28;20029;-46
2022/04/10 19:18:19;;;;;;;22.05;4.22;;;;;;;;;;10435513;28;20101;-48
2022/04/10 19:23:24;;;;;;;17.03;4.30;;;;;;;;;;10422704;28;20033;-48
2022/04/10 19:28:25;;;;;;;17.00;4.03;;;;;;;;;;10417769;28;20123;-58
2022/04/10 19:33:26;;;;;;;16.90;3.83;;;;;;;;;;10412316;28;20079;-60
2022/04/10 19:38:26;;;;;;;15.67;5.03;;;;;;;;;;10453100;28;20044;-58
2022/04/10 19:43:27;;;;;;;14.73;3.92;;;;;;;;;;10413903;28;20033;-57
2022/04/10 19:48:27;;;;;;;18.52;4.13;;;;;;;;;;10411801;28;20025;-61
2022/04/10 19:53:38;;;;;;;12.23;4.13;;;;;;;;;;10439920;28;20029;-59
2022/04/10 19:58:40;;;;;;;18.10;4.57;;;;;;;;;;10437184;28;20043;-59
2022/04/10 20:03:42;;;;;;;10.48;3.88;;;;;;;;;;10445510;28;20041;-60
2022/04/10 20:08:45;;;;;;;18.55;4.13;;;;;;;;;;10422811;28;20036;-56
2022/04/10 20:13:46;;;;;;;11.88;4.13;;;;;;;;;;10414004;28;20041;-60
2022/04/10 20:18:47;;;;;;;13.90;4.03;;;;;;;;;;10415142;28;20022;-59
2022/04/10 20:23:48;;;;;;;15.37;3.63;;;;;;;;;;10427174;28;20037;-61
2022/04/10 20:28:48;;;;;;;14.98;3.75;;;;;;;;;;10413291;28;20056;-60
2022/04/10 20:33:49;;;;;;;19.67;4.03;;;;;;;;;;10432959;28;20497;-60
2022/04/10 20:38:49;;;;;;;10.90;4.00;;;;;;;;;;10442399;28;20033;-60
2022/04/10 20:43:49;;;;;;;13.13;3.87;;;;;;;;;;10421286;28;20548;-60
2022/04/10 20:48:50;;;;;;;8.63;3.47;;;;;;;;;;10411782;28;20116;-61
2022/04/10 20:53:50;;;;;;;16.50;3.83;;;;;;;;;;10412148;28;20083;-60
2022/04/10 20:58:50;;;;;;;12.23;3.37;;;;;;;;;;10427994;28;20036;-60
2022/04/10 21:03:51;;;;;;;11.93;3.55;;;;;;;;;;10420375;28;20504;-60
2022/04/10 21:08:55;;;;;;;11.63;3.30;;;;;;;;;;10443011;28;20461;-60
2022/04/10 21:13:56;;;;;;;17.08;4.05;;;;;;;;;;10431370;28;21054;-59
2022/04/10 21:18:57;;;;;;;14.07;3.53;;;;;;;;;;10450987;28;20089;-58
2022/04/10 21:23:57;;;;;;;10.77;3.63;;;;;;;;;;10433696;28;20036;-58
2022/04/10 21:28:57;;;;;;;18.17;3.40;;;;;;;;;;10411270;28;20284;-56
2022/04/10 21:33:58;;;;;;;15.60;3.23;;;;;;;;;;10413445;28;20459;-49
2022/04/10 21:38:59;;;;;;;13.68;3.47;;;;;;;;;;10440824;28;20104;-48
2022/04/10 21:43:59;;;;;;;10.88;3.60;;;;;;;;;;10418756;28;20040;-48
2022/04/10 21:49:00;;;;;;;19.17;3.60;;;;;;;;;;10416195;28;20037;-48
2022/04/10 21:54:00;;;;;;;12.50;3.70;;;;;;;;;;10421035;28;20641;-49
2022/04/10 21:59:00;;;;;;;8.70;3.27;;;;;;;;;;10413132;28;20451;-48
2022/04/10 22:04:03;;;;;;;7.60;3.13;;;;;;;;;;10410075;28;20026;-48
2022/04/10 22:09:06;;;;;;;12.73;3.50;;;;;;;;;;10406948;28;20985;-49
2022/04/10 22:14:07;;;;;;;8.05;2.67;;;;;;;;;;10408043;28;20033;-48
2022/04/10 22:19:07;;;;;;;11.80;3.10;;;;;;;;;;10414549;28;20033;-49
2022/04/10 22:24:07;;;;;;;9.23;3.20;;;;;;;;;;10407188;28;20032;-50
2022/04/10 22:29:08;;;;;;;9.98;3.25;;;;;;;;;;10419466;28;20525;-49
2022/04/10 22:34:08;;;;;;;6.17;2.40;;;;;;;;;;10436816;28;20082;-49
2022/04/10 22:39:09;;;;;;;7.97;2.43;;;;;;;;;;10430163;28;20466;-50
2022/04/10 22:44:09;;;;;;;6.00;2.72;;;;;;;;;;10408235;28;20067;-48
2022/04/10 22:49:10;;;;;;;7.73;2.70;;;;;;;;;;10408858;28;20045;-49
2022/04/10 22:54:11;;;;;;;6.07;2.60;;;;;;;;;;10408268;28;20068;-48
2022/04/10 22:59:11;;;;;;;10.00;2.63;;;;;;;;;;10408886;28;20045;-47
2022/04/10 23:04:12;;;;;;;9.63;2.73;;;;;;;;;;10408445;28;20064;-47
2022/04/10 23:09:19;;;;;;;7.50;2.65;;;;;;;;;;10408670;28;20126;-47
2022/04/10 23:14:19;;;;;;;5.50;2.30;;;;;;;;;;10415300;28;20021;-47
2022/04/10 23:19:19;;;;;;;9.00;2.63;;;;;;;;;;10415163;28;20029;-49
2022/04/10 23:24:20;;;;;;;8.40;2.30;;;;;;;;;;10453910;28;20505;-49
2022/04/10 23:29:20;;;;;;;4.33;2.60;;;;;;;;;;10455961;28;20049;-48
2022/04/10 23:34:21;;;;;;;6.07;2.72;;;;;;;;;;10419039;28;20067;-48
2022/04/10 23:39:21;;;;;;;5.60;2.23;;;;;;;;;;10436393;28;20052;-50
2022/04/10 23:44:22;;;;;;;5.40;2.20;;;;;;;;;;10414504;28;20028;-48
2022/04/10 23:49:29;;;;;;;3.20;2.25;;;;;;;;;;10422751;28;20477;-50
2022/04/10 23:54:40;;;;;;;5.15;2.45;;;;;;;;;;10455710;28;20024;-49
2022/04/10 23:59:40;;;;;;;4.72;2.33;;;;;;;;;;10434492;28;20055;-47
